Washington Dulles International Airport
KIAD : now visible

Airfield :











YOU CAN JOIN US ON...

 
LOGIN :

Register | Disclaimer

   EN    FR    IT 

 









Legend :    VFR   Marginal VFR   IFR   Intensive IFR   Very Intensive IFR
Visi :
Ceiling :
>= 8 km
>= 3000ft
5 to 8 km
1000 to 3000 ft
1500m to 5 km
500 to 1000 ft
800 to 1500m
200 to 500 ft
< 800m
< 200 ft
Symbols :   Thunderstorms  Fog  Heavy snow  Heavy precipitations  Wind > 20 kt






- Airport Elevation : 312 ft
- IATA code : IAD


KIAD - Washington Dulles International

CURRENT METAR :
  • 020952Z 20009KT 10SM OVC130 24/21 A2996 RMK AO2 SLP141 T02440206

EXPIRED METARs :
  • 020852Z COR 20009KT 10SM BKN120 OVC150 25/21 A2995 RMK AO2 SLP139 T02500211 53000
  • 012152Z 30013G18KT 7SM -TSRA SCT040CB BKN120 OVC200 28/23 A3002 RMK AO2 LTG DSNT NE RAB42 TSB04 SLP161 CONS LTGICCG OHD AND ALQDS TS OHD ALQDS MOV NE P0008 T02780233

TAF KIAD
Valid from the 02 at 09:00 until the 03 at 12:00 UTC


020858Z 0209/0312 20008KT P6SM BKN130
FM021300 23008G16KT P6SM VCSH FEW050 BKN130
FM021900 22008G16KT P6SM -SHRA VCTS BKN050CB BKN130
FM030000 VRB04KT 6SM -SHRA BKN050 BKN130
FM030400 VRB03KT 5SM BR BKN050 BKN200
FM031000 36005KT P6SM SCT050 BKN200
KZDC FIR / North America



MET'MAP, your aeronautical weather chart ! - Copyright ORBIFLY December 2007 - Disclaimer

ORBIFLY MET'MAP TEAM :

Programming & Development : Alexandra Zaïnal
Original concept : Baudouin d'Aumeries
Technical & hardware support : Manuel Goepfert
Assistance : Marc-Olivier Méhu




SOURCES & CREDITS :

   NOAA       Earth
Advisory